createdAt,value
2023-04-17T00:01:20.162Z,6.53
2023-04-17T00:03:48.268Z,6.57
2023-04-17T00:06:16.764Z,7.30
2023-04-17T00:08:47.759Z,6.17
2023-04-17T00:11:18.051Z,9.10
2023-04-17T00:13:47.990Z,17.17
2023-04-17T00:16:16.643Z,11.03
2023-04-17T00:18:44.942Z,12.73
2023-04-17T00:21:12.826Z,18.73
2023-04-17T00:23:41.398Z,24.00
2023-04-17T00:26:09.405Z,11.93
2023-04-17T00:28:37.562Z,7.83
2023-04-17T00:31:26.067Z,10.43
2023-04-17T00:33:56.202Z,19.33
2023-04-17T00:36:27.543Z,21.87
2023-04-17T00:38:56.083Z,20.37
2023-04-17T00:41:24.956Z,23.93
2023-04-17T00:43:53.088Z,28.03
2023-04-17T00:46:23.184Z,18.57
2023-04-17T00:48:51.332Z,22.90
2023-04-17T00:51:19.255Z,14.37
2023-04-17T00:53:48.000Z,21.33
2023-04-17T00:56:16.290Z,10.13
2023-04-17T00:58:44.518Z,11.47
2023-04-17T01:01:13.074Z,8.90
2023-04-17T01:03:42.041Z,8.50
2023-04-17T01:06:10.501Z,8.60
2023-04-17T01:08:42.623Z,6.73
2023-04-17T01:11:12.124Z,7.37
2023-04-17T01:13:50.657Z,10.30
2023-04-17T01:16:20.324Z,10.03
2023-04-17T01:18:51.625Z,13.37
2023-04-17T01:21:19.642Z,5.33
2023-04-17T01:23:52.404Z,7.83
2023-04-17T01:26:31.762Z,9.83
2023-04-17T01:29:03.147Z,6.37
2023-04-17T01:31:31.958Z,10.77
2023-04-17T01:34:02.804Z,11.50
2023-04-17T01:36:32.083Z,6.67
2023-04-17T01:39:00.011Z,6.90
2023-04-17T01:41:28.147Z,7.53
2023-04-17T01:43:56.522Z,5.93
2023-04-17T01:46:24.711Z,5.17
2023-04-17T01:48:52.814Z,4.87
2023-04-17T01:51:21.287Z,6.07
2023-04-17T01:53:58.281Z,6.80
2023-04-17T01:56:27.928Z,6.93
2023-04-17T01:58:56.120Z,5.50
2023-04-17T02:01:24.353Z,5.33
2023-04-17T02:03:52.700Z,6.83
2023-04-17T02:06:21.884Z,8.30
2023-04-17T02:08:49.920Z,6.77
2023-04-17T02:11:18.034Z,8.90
2023-04-17T02:13:46.483Z,6.00
2023-04-17T02:16:14.772Z,9.53
2023-04-17T02:18:42.746Z,5.37
2023-04-17T02:21:10.746Z,4.83
2023-04-17T02:23:38.708Z,7.43
2023-04-17T02:26:06.814Z,4.97
2023-04-17T02:28:41.006Z,6.40
2023-04-17T02:31:09.659Z,4.47
2023-04-17T02:33:38.002Z,7.33
2023-04-17T02:36:06.781Z,6.13
2023-04-17T02:38:35.006Z,3.33
2023-04-17T02:41:03.224Z,6.50
2023-04-17T02:43:31.934Z,6.77
2023-04-17T02:46:00.222Z,10.83
2023-04-17T02:48:28.648Z,7.23
2023-04-17T02:50:56.494Z,7.97
2023-04-17T02:53:24.624Z,7.63
2023-04-17T02:55:52.719Z,10.53
2023-04-17T02:58:21.390Z,5.23
2023-04-17T03:00:49.500Z,6.97
2023-04-17T03:03:17.689Z,6.07
2023-04-17T03:05:45.641Z,7.00
2023-04-17T03:08:14.071Z,4.83
2023-04-17T03:10:42.910Z,5.67
2023-04-17T03:13:13.716Z,4.60
2023-04-17T03:15:41.949Z,11.33
2023-04-17T03:18:10.319Z,5.17
2023-04-17T03:20:39.288Z,11.37
2023-04-17T03:23:07.713Z,5.30
2023-04-17T03:25:35.799Z,6.27
2023-04-17T03:28:04.244Z,7.10
2023-04-17T03:30:33.352Z,9.53
2023-04-17T03:33:01.621Z,4.97
2023-04-17T03:35:29.852Z,6.43
2023-04-17T03:37:58.446Z,5.43
2023-04-17T03:40:26.714Z,7.97
2023-04-17T03:42:54.914Z,3.93
2023-04-17T03:45:23.410Z,9.57
2023-04-17T03:47:51.479Z,4.97
2023-04-17T03:50:19.466Z,5.60
2023-04-17T03:52:47.460Z,6.70
2023-04-17T03:55:17.272Z,6.70
2023-04-17T03:57:45.481Z,4.73
2023-04-17T04:00:14.430Z,7.73
2023-04-17T04:02:42.702Z,7.30
2023-04-17T04:05:12.232Z,5.23
2023-04-17T04:07:40.244Z,8.53
2023-04-17T04:10:08.850Z,6.53
2023-04-17T04:12:37.086Z,7.43
2023-04-17T04:15:11.006Z,6.27
2023-04-17T04:17:41.997Z,4.40
2023-04-17T04:20:10.361Z,7.63
2023-04-17T04:22:38.418Z,7.43
2023-04-17T04:25:07.093Z,5.70
2023-04-17T04:27:35.356Z,4.70
2023-04-17T04:30:04.905Z,5.55
2023-04-17T04:32:37.852Z,6.63
2023-04-17T04:35:07.037Z,3.95
2023-04-17T04:37:36.255Z,8.68
2023-04-17T04:40:25.176Z,5.88
2023-04-17T04:42:53.151Z,5.70
2023-04-17T04:45:21.276Z,4.05
2023-04-17T04:47:51.505Z,9.68
2023-04-17T04:50:21.707Z,7.53
2023-04-17T04:52:49.605Z,6.40
2023-04-17T04:55:17.770Z,9.98
2023-04-17T04:57:45.978Z,6.88
2023-04-17T05:00:15.078Z,5.82
2023-04-17T05:02:43.874Z,7.22
2023-04-17T05:05:12.897Z,10.68
2023-04-17T05:07:41.288Z,15.85
2023-04-17T05:10:10.103Z,17.08
2023-04-17T05:12:38.178Z,17.27
2023-04-17T05:15:07.226Z,11.37
2023-04-17T05:17:36.864Z,15.13
2023-04-17T05:20:09.569Z,6.17
2023-04-17T05:22:37.950Z,9.93
2023-04-17T05:25:06.240Z,10.57
2023-04-17T05:27:34.690Z,15.93
2023-04-17T05:30:02.756Z,17.17
2023-04-17T05:32:31.948Z,6.40
2023-04-17T05:34:59.962Z,6.47
2023-04-17T05:37:28.128Z,9.67
2023-04-17T05:39:56.291Z,7.97
2023-04-17T05:42:25.141Z,17.40
2023-04-17T05:44:53.583Z,12.70
2023-04-17T05:47:21.996Z,9.20
2023-04-17T05:49:51.920Z,9.47
2023-04-17T05:52:20.026Z,8.23
2023-04-17T05:54:48.151Z,21.87
2023-04-17T05:57:16.368Z,18.50
2023-04-17T05:59:46.592Z,12.47
2023-04-17T06:02:17.728Z,27.00
2023-04-17T06:04:47.437Z,20.10
2023-04-17T06:07:15.819Z,22.77
2023-04-17T06:09:43.748Z,12.13
2023-04-17T06:12:16.553Z,45.30
2023-04-17T06:14:49.171Z,49.77
2023-04-17T06:17:17.754Z,29.23
2023-04-17T06:19:46.568Z,21.83
2023-04-17T06:22:15.888Z,21.43
2023-04-17T06:24:45.298Z,7.27
2023-04-17T06:27:13.454Z,24.33
2023-04-17T06:29:41.778Z,11.23
2023-04-17T06:32:12.815Z,33.03
2023-04-17T06:34:58.213Z,21.30
2023-04-17T06:37:27.422Z,31.93
2023-04-17T06:39:55.708Z,22.43
2023-04-17T06:42:26.690Z,35.43
2023-04-17T06:44:56.394Z,21.07
2023-04-17T06:47:24.566Z,4.23
2023-04-17T06:49:52.726Z,8.17
2023-04-17T06:52:22.614Z,10.77
2023-04-17T06:54:56.371Z,28.53
2023-04-17T06:57:24.382Z,7.13
2023-04-17T06:59:52.340Z,5.67
2023-04-17T07:02:20.429Z,5.37
2023-04-17T07:04:49.551Z,7.50
2023-04-17T07:07:17.757Z,6.30
2023-04-17T07:09:48.302Z,5.67
2023-04-17T07:12:16.523Z,4.57
2023-04-17T07:14:45.300Z,13.07
2023-04-17T07:17:14.836Z,5.17
2023-04-17T07:19:42.901Z,4.13
2023-04-17T07:22:10.997Z,6.97
2023-04-17T07:24:44.089Z,4.60
2023-04-17T07:27:12.116Z,8.30
2023-04-17T07:29:40.197Z,4.97
2023-04-17T07:32:08.199Z,4.47
2023-04-17T07:34:41.539Z,5.47
2023-04-17T07:37:09.969Z,6.87
2023-04-17T07:39:38.271Z,6.47
2023-04-17T07:42:09.407Z,3.47
2023-04-17T07:44:40.949Z,5.17
2023-04-17T07:47:09.403Z,3.40
2023-04-17T07:49:40.145Z,8.10
2023-04-17T07:52:08.367Z,17.33
2023-04-17T07:54:36.587Z,11.30
2023-04-17T07:57:11.435Z,7.80
2023-04-17T07:59:39.993Z,4.17
2023-04-17T08:02:08.900Z,6.50
2023-04-17T08:04:38.154Z,2.03
2023-04-17T08:07:07.741Z,6.90
2023-04-17T08:09:36.012Z,7.70
2023-04-17T08:12:04.221Z,8.33
2023-04-17T08:14:33.237Z,3.83
2023-04-17T08:17:02.333Z,3.53
2023-04-17T08:19:33.036Z,7.30
2023-04-17T08:22:06.766Z,4.20
2023-04-17T08:24:34.872Z,10.87
2023-04-17T08:27:06.542Z,5.37
2023-04-17T08:29:40.545Z,3.70
2023-04-17T08:32:14.542Z,2.27
2023-04-17T08:34:45.195Z,6.10
2023-04-17T08:37:13.204Z,4.67
2023-04-17T08:39:41.793Z,10.37
2023-04-17T08:42:18.563Z,3.87
2023-04-17T08:44:50.203Z,6.57
2023-04-17T08:47:18.382Z,4.97
2023-04-17T08:49:47.688Z,3.13
2023-04-17T08:52:15.959Z,7.83
2023-04-17T08:54:44.182Z,4.10
2023-04-17T08:57:12.716Z,4.83
2023-04-17T08:59:42.772Z,5.80
2023-04-17T09:02:11.388Z,7.67
2023-04-17T09:04:45.100Z,5.30
2023-04-17T09:07:15.835Z,3.13
2023-04-17T09:09:59.919Z,3.23
2023-04-17T09:12:29.216Z,4.63
2023-04-17T09:15:01.454Z,3.60
2023-04-17T09:17:35.234Z,5.93
2023-04-17T09:20:07.928Z,3.77
2023-04-17T09:22:37.657Z,3.63
2023-04-17T09:25:09.606Z,2.43
2023-04-17T09:27:37.660Z,6.53
2023-04-17T09:30:07.269Z,5.17
2023-04-17T09:32:37.853Z,3.73
2023-04-17T09:35:06.464Z,4.67
2023-04-17T09:37:49.898Z,7.53
2023-04-17T09:40:20.044Z,3.67
2023-04-17T09:43:01.742Z,6.37
2023-04-17T09:45:42.848Z,4.90
2023-04-17T09:48:13.121Z,3.07
2023-04-17T09:50:41.499Z,8.77
2023-04-17T09:53:09.879Z,7.23
2023-04-17T09:55:39.136Z,3.20
2023-04-17T09:58:08.569Z,8.33
2023-04-17T10:00:38.230Z,7.80
2023-04-17T10:03:08.123Z,12.40
2023-04-17T10:05:37.163Z,5.07
2023-04-17T10:08:06.637Z,3.20
2023-04-17T10:10:36.862Z,6.03
2023-04-17T10:13:07.985Z,3.23
2023-04-17T10:15:36.359Z,8.63
2023-04-17T10:18:26.086Z,8.00
2023-04-17T10:20:55.808Z,4.40
2023-04-17T10:23:32.906Z,7.43
2023-04-17T10:26:25.509Z,5.97
2023-04-17T10:28:54.499Z,3.97
2023-04-17T10:32:01.258Z,6.13
2023-04-17T10:34:41.008Z,10.10
2023-04-17T10:37:15.861Z,2.93
2023-04-17T10:39:53.777Z,5.50
2023-04-17T10:42:22.746Z,1.43
2023-04-17T10:44:57.511Z,4.97
2023-04-17T10:47:35.092Z,11.70
2023-04-17T10:50:06.128Z,4.80
2023-04-17T10:52:55.024Z,2.67
2023-04-17T10:55:27.869Z,3.13
2023-04-17T10:58:01.345Z,3.13
2023-04-17T11:00:50.120Z,2.50
2023-04-17T11:03:18.586Z,3.57
2023-04-17T11:05:48.627Z,3.57
2023-04-17T11:08:17.300Z,6.87
2023-04-17T11:10:46.259Z,10.43
2023-04-17T11:13:16.373Z,34.10
2023-04-17T11:15:44.502Z,35.27
2023-04-17T11:18:13.303Z,31.23
2023-04-17T11:20:41.609Z,33.93
2023-04-17T11:23:10.080Z,20.33
2023-04-17T11:25:43.849Z,18.17
2023-04-17T11:28:12.505Z,13.57
2023-04-17T11:30:45.364Z,14.63
2023-04-17T11:33:13.728Z,9.13
2023-04-17T11:35:43.160Z,6.70
2023-04-17T11:38:23.788Z,19.20
2023-04-17T11:40:54.488Z,38.77
2023-04-17T11:43:24.283Z,40.63
2023-04-17T11:45:57.372Z,31.77
2023-04-17T11:48:30.044Z,42.67
2023-04-17T11:51:01.591Z,33.90
2023-04-17T11:53:30.308Z,18.40
2023-04-17T11:56:18.605Z,15.17
2023-04-17T11:58:53.570Z,27.00
2023-04-17T12:01:26.376Z,34.97
2023-04-17T12:03:58.121Z,18.83
2023-04-17T12:06:37.286Z,33.77
2023-04-17T12:09:07.398Z,8.47
2023-04-17T12:11:36.600Z,16.27
2023-04-17T12:14:05.951Z,11.57
2023-04-17T12:16:37.889Z,7.93
2023-04-17T12:19:06.386Z,21.37
2023-04-17T12:21:35.038Z,36.20
2023-04-17T12:24:03.214Z,11.47
2023-04-17T12:26:34.999Z,14.63
2023-04-17T12:29:05.175Z,11.53
2023-04-17T12:31:33.394Z,16.90
2023-04-17T12:34:05.841Z,4.10
2023-04-17T12:36:34.497Z,6.43
2023-04-17T12:39:02.392Z,3.83
2023-04-17T12:41:30.935Z,10.87
2023-04-17T12:44:02.011Z,55.27
2023-04-17T12:46:31.027Z,9.53
2023-04-17T12:49:04.151Z,10.63
2023-04-17T12:51:38.235Z,16.60
2023-04-17T12:54:06.394Z,9.37
2023-04-17T12:56:35.090Z,45.60
2023-04-17T12:59:03.338Z,22.17
2023-04-17T13:01:31.828Z,7.70
2023-04-17T13:04:00.282Z,8.63
2023-04-17T13:06:28.507Z,5.03
2023-04-17T13:08:56.568Z,5.57
2023-04-17T13:11:29.502Z,11.43
2023-04-17T13:13:58.400Z,7.67
2023-04-17T13:16:27.437Z,8.87
2023-04-17T13:18:55.943Z,5.57
2023-04-17T13:21:23.863Z,4.10
2023-04-17T13:23:52.053Z,27.53
2023-04-17T13:26:21.029Z,40.10
2023-04-17T13:28:51.873Z,16.97
2023-04-17T13:31:22.299Z,6.53
2023-04-17T13:33:50.908Z,3.43
2023-04-17T13:36:18.892Z,2.63
2023-04-17T13:38:48.545Z,5.33
2023-04-17T13:41:18.552Z,5.03
2023-04-17T13:43:46.763Z,3.10
2023-04-17T13:46:16.682Z,9.23
2023-04-17T13:48:45.147Z,7.40
2023-04-17T13:51:14.381Z,3.50
2023-04-17T13:53:42.610Z,9.87
2023-04-17T13:56:10.888Z,4.53
2023-04-17T13:58:40.696Z,9.87
2023-04-17T14:01:12.888Z,7.73
2023-04-17T14:03:43.059Z,11.10
2023-04-17T14:06:13.387Z,8.97
2023-04-17T14:08:44.078Z,8.07
2023-04-17T14:11:15.788Z,10.17
2023-04-17T14:13:43.843Z,5.90
2023-04-17T14:16:11.902Z,5.77
2023-04-17T14:18:39.946Z,7.13
2023-04-17T14:21:08.505Z,12.37
2023-04-17T14:23:36.825Z,9.80
2023-04-17T14:26:07.303Z,16.17
2023-04-17T14:28:38.402Z,20.03
2023-04-17T14:31:09.729Z,15.13
2023-04-17T14:33:38.418Z,14.63
2023-04-17T14:36:07.729Z,13.43
2023-04-17T14:38:42.178Z,7.33
2023-04-17T14:41:10.441Z,11.20
2023-04-17T14:43:38.502Z,5.17
2023-04-17T14:46:06.516Z,14.77
2023-04-17T14:48:48.103Z,7.43
2023-04-17T14:51:27.405Z,30.63
2023-04-17T14:53:55.732Z,56.57
2023-04-17T14:56:24.012Z,75.90
2023-04-17T14:58:52.193Z,50.30
2023-04-17T15:01:20.596Z,30.50
2023-04-17T15:03:49.145Z,13.50
2023-04-17T15:06:23.948Z,5.67
2023-04-17T15:08:52.738Z,10.17
2023-04-17T15:11:21.417Z,5.30
2023-04-17T15:13:49.636Z,7.63
2023-04-17T15:16:18.295Z,7.90
2023-04-17T15:18:46.619Z,9.13
2023-04-17T15:21:16.670Z,6.47
2023-04-17T15:23:44.677Z,5.83
2023-04-17T15:26:14.293Z,8.50
2023-04-17T15:28:42.762Z,4.53
2023-04-17T15:31:13.138Z,6.03
2023-04-17T15:33:41.415Z,8.20
2023-04-17T15:36:09.449Z,10.13
2023-04-17T15:38:40.237Z,10.40
2023-04-17T15:41:10.155Z,5.03
2023-04-17T15:43:39.857Z,5.10
2023-04-17T15:46:08.188Z,4.57
2023-04-17T15:48:36.397Z,10.97
2023-04-17T15:51:05.985Z,7.47
2023-04-17T15:53:34.446Z,8.63
2023-04-17T15:56:03.234Z,26.17
2023-04-17T15:58:31.869Z,15.87
2023-04-17T16:01:00.131Z,12.50
2023-04-17T16:03:28.779Z,16.37
2023-04-17T16:06:00.539Z,22.87
2023-04-17T16:08:29.062Z,31.10
2023-04-17T16:10:57.717Z,45.90
2023-04-17T16:13:27.024Z,36.83
2023-04-17T16:15:55.691Z,34.37
2023-04-17T16:18:24.194Z,21.73
2023-04-17T16:20:52.155Z,14.83
2023-04-17T16:23:21.211Z,13.07
2023-04-17T16:25:51.463Z,7.13
2023-04-17T16:28:19.585Z,10.37
2023-04-17T16:30:49.853Z,4.77
2023-04-17T16:33:18.088Z,11.23
2023-04-17T16:35:46.457Z,7.27
2023-04-17T16:38:14.492Z,12.20
2023-04-17T16:40:42.636Z,17.43
2023-04-17T16:43:11.153Z,25.40
2023-04-17T16:45:40.813Z,20.73
2023-04-17T16:48:11.879Z,34.50
2023-04-17T16:50:42.734Z,33.83
2023-04-17T16:53:11.337Z,26.47
2023-04-17T16:55:39.535Z,30.43
2023-04-17T16:58:09.708Z,19.63
2023-04-17T17:00:38.207Z,20.80
2023-04-17T17:03:06.358Z,20.17
2023-04-17T17:05:35.254Z,15.30
2023-04-17T17:08:11.130Z,14.73
2023-04-17T17:10:41.896Z,13.53
2023-04-17T17:13:13.518Z,15.10
2023-04-17T17:15:45.463Z,11.97
2023-04-17T17:18:13.492Z,15.63
2023-04-17T17:20:44.559Z,15.27
2023-04-17T17:23:12.486Z,10.47
2023-04-17T17:25:40.780Z,7.63
2023-04-17T17:28:09.530Z,10.10
2023-04-17T17:30:38.491Z,7.23
2023-04-17T17:33:06.694Z,11.30
2023-04-17T17:35:34.959Z,14.20
2023-04-17T17:38:03.794Z,15.53
2023-04-17T17:40:37.261Z,10.33
2023-04-17T17:43:05.416Z,13.37
2023-04-17T17:45:37.437Z,11.80
2023-04-17T17:48:06.849Z,14.57
2023-04-17T17:50:37.708Z,10.00
2023-04-17T17:53:05.905Z,11.40
2023-04-17T17:55:38.224Z,10.10
2023-04-17T17:58:07.731Z,16.37
2023-04-17T18:00:36.888Z,17.47
2023-04-17T18:03:06.137Z,9.23
2023-04-17T18:05:34.878Z,10.83
2023-04-17T18:08:02.870Z,10.23
2023-04-17T18:10:31.143Z,12.63
2023-04-17T18:13:00.223Z,12.67
2023-04-17T18:15:28.635Z,7.50
2023-04-17T18:17:56.916Z,9.60
2023-04-17T18:20:24.938Z,9.03
2023-04-17T18:22:53.096Z,6.97
2023-04-17T18:25:21.508Z,8.27
2023-04-17T18:27:52.139Z,7.37
2023-04-17T18:30:20.087Z,6.50
2023-04-17T18:32:48.169Z,5.87
2023-04-17T18:35:16.369Z,7.00
2023-04-17T18:37:45.762Z,6.47
2023-04-17T18:40:14.255Z,6.70
2023-04-17T18:42:42.452Z,6.80
2023-04-17T18:45:13.919Z,8.70
2023-04-17T18:47:42.705Z,11.03
2023-04-17T18:50:12.338Z,11.03
2023-04-17T18:52:44.041Z,18.43
2023-04-17T18:55:14.950Z,12.33
2023-04-17T18:57:43.474Z,10.63
2023-04-17T19:00:15.239Z,28.90
2023-04-17T19:02:46.933Z,30.73
2023-04-17T19:05:17.041Z,16.13
2023-04-17T19:07:48.950Z,19.00
2023-04-17T19:10:16.930Z,16.60
2023-04-17T19:12:48.490Z,8.20
2023-04-17T19:15:18.058Z,3.77
2023-04-17T19:17:46.291Z,6.40
2023-04-17T19:20:17.968Z,5.60
2023-04-17T19:22:46.273Z,9.37
2023-04-17T19:25:14.323Z,14.47
2023-04-17T19:27:42.502Z,5.77
2023-04-17T19:30:11.379Z,4.43
2023-04-17T19:32:39.750Z,5.60
2023-04-17T19:35:08.598Z,7.30
2023-04-17T19:37:37.098Z,6.87
2023-04-17T19:40:14.122Z,6.47
2023-04-17T19:42:49.907Z,21.80
2023-04-17T19:45:21.505Z,40.00
2023-04-17T19:47:57.715Z,32.83
2023-04-17T19:50:32.113Z,40.77
2023-04-17T19:53:01.136Z,27.17
2023-04-17T19:55:30.025Z,26.67
2023-04-17T19:57:59.219Z,40.23
2023-04-17T20:00:27.475Z,34.07
2023-04-17T20:02:58.621Z,33.33
2023-04-17T20:05:29.765Z,26.07
2023-04-17T20:07:57.821Z,20.53
2023-04-17T20:10:29.902Z,20.77
2023-04-17T20:13:00.752Z,19.50
2023-04-17T20:15:32.455Z,33.73
2023-04-17T20:18:00.860Z,30.30
2023-04-17T20:20:29.521Z,39.07
2023-04-17T20:23:00.608Z,26.03
2023-04-17T20:25:28.929Z,22.97
2023-04-17T20:28:01.939Z,11.90
2023-04-17T20:30:31.076Z,8.83
2023-04-17T20:33:00.756Z,15.50
2023-04-17T20:35:28.890Z,36.23
2023-04-17T20:37:57.633Z,13.90
2023-04-17T20:40:25.953Z,24.67
2023-04-17T20:42:54.437Z,17.90
2023-04-17T20:45:22.993Z,22.53
2023-04-17T20:50:22.464Z,10.97
2023-04-17T20:52:51.680Z,8.17
2023-04-17T20:55:20.460Z,10.20
2023-04-17T20:57:49.227Z,11.63
2023-04-17T21:00:23.425Z,20.93
2023-04-17T21:02:56.548Z,19.37
2023-04-17T21:05:25.475Z,15.63
2023-04-17T21:07:54.801Z,25.80
2023-04-17T21:10:22.949Z,24.80
2023-04-17T21:12:51.288Z,30.83
2023-04-17T21:15:21.830Z,29.07
2023-04-17T21:17:50.366Z,40.00
2023-04-17T21:20:18.683Z,29.07
2023-04-17T21:22:46.778Z,36.60
2023-04-17T21:25:14.996Z,31.40
2023-04-17T21:27:44.575Z,24.43
2023-04-17T21:30:13.550Z,30.93
2023-04-17T21:32:42.954Z,20.67
2023-04-17T21:35:12.011Z,31.63
2023-04-17T21:37:41.039Z,18.47
2023-04-17T21:40:10.091Z,14.63
2023-04-17T21:42:38.217Z,16.63
2023-04-17T21:45:07.060Z,29.27
2023-04-17T21:47:35.973Z,29.97
2023-04-17T21:50:04.144Z,31.90
2023-04-17T21:52:32.312Z,46.13
2023-04-17T21:55:05.343Z,45.83
2023-04-17T21:57:33.672Z,40.43
2023-04-17T22:00:03.036Z,26.90
2023-04-17T22:02:34.134Z,19.93
2023-04-17T22:05:02.638Z,18.43
2023-04-17T22:07:34.122Z,42.60
2023-04-17T22:10:06.965Z,49.00
2023-04-17T22:12:35.126Z,46.80
2023-04-17T22:15:03.313Z,39.23
2023-04-17T22:18:00.703Z,33.90
2023-04-17T22:20:29.012Z,29.57
2023-04-17T22:22:57.198Z,23.83
2023-04-17T22:25:25.372Z,13.10
2023-04-17T22:27:53.850Z,7.10
2023-04-17T22:30:26.933Z,9.07
2023-04-17T22:32:57.754Z,16.20
2023-04-17T22:35:25.947Z,10.87
2023-04-17T22:37:54.101Z,18.30
2023-04-17T22:40:22.077Z,47.97
2023-04-17T22:42:50.987Z,37.77
2023-04-17T22:45:22.084Z,40.10
2023-04-17T22:47:50.559Z,19.70
2023-04-17T22:50:19.487Z,36.27
2023-04-17T22:52:49.289Z,25.80
2023-04-17T22:55:22.504Z,16.70
2023-04-17T22:57:50.557Z,35.67
2023-04-17T23:00:22.726Z,27.90
2023-04-17T23:02:50.995Z,29.17
2023-04-17T23:05:19.183Z,42.87
2023-04-17T23:07:47.634Z,51.97
2023-04-17T23:10:19.515Z,42.07
2023-04-17T23:12:47.677Z,24.30
2023-04-17T23:15:15.901Z,27.20
2023-04-17T23:17:46.734Z,31.30
2023-04-17T23:20:15.119Z,32.97
2023-04-17T23:22:43.573Z,20.77
2023-04-17T23:25:11.689Z,38.23
2023-04-17T23:27:46.800Z,30.33
2023-04-17T23:30:15.198Z,48.10
2023-04-17T23:32:43.741Z,55.97
2023-04-17T23:35:11.883Z,31.73
2023-04-17T23:37:40.271Z,46.27
2023-04-17T23:40:09.607Z,39.83
2023-04-17T23:42:37.999Z,40.80
2023-04-17T23:45:06.637Z,59.87
2023-04-17T23:47:35.273Z,41.73
2023-04-17T23:50:05.662Z,53.97
2023-04-17T23:52:34.061Z,58.00
2023-04-17T23:55:03.319Z,57.37
2023-04-17T23:57:46.842Z,52.73
